sensor_id;sensor_type;location;lat;lon;timestamp;P1;durP1;ratioP1;P2;durP2;ratioP2
21833;SDS011;11079;51.092;3.458;2023-04-24T00:02:44;16.10;;;13.05;;
21833;SDS011;11079;51.092;3.458;2023-04-24T00:05:19;18.85;;;13.60;;
21833;SDS011;11079;51.092;3.458;2023-04-24T00:08:00;19.67;;;14.40;;
21833;SDS011;11079;51.092;3.458;2023-04-24T00:11:08;16.50;;;12.77;;
21833;SDS011;11079;51.092;3.458;2023-04-24T00:13:42;19.17;;;14.05;;
21833;SDS011;11079;51.092;3.458;2023-04-24T00:16:28;17.30;;;12.13;;
21833;SDS011;11079;51.092;3.458;2023-04-24T00:18:57;16.33;;;12.18;;
21833;SDS011;11079;51.092;3.458;2023-04-24T00:21:46;14.73;;;10.40;;
21833;SDS011;11079;51.092;3.458;2023-04-24T00:24:16;14.10;;;9.55;;
21833;SDS011;11079;51.092;3.458;2023-04-24T00:26:44;11.63;;;8.57;;
21833;SDS011;11079;51.092;3.458;2023-04-24T00:29:37;10.50;;;7.80;;
21833;SDS011;11079;51.092;3.458;2023-04-24T00:32:18;10.73;;;7.57;;
21833;SDS011;11079;51.092;3.458;2023-04-24T00:35:11;9.60;;;7.97;;
21833;SDS011;11079;51.092;3.458;2023-04-24T00:37:50;10.23;;;6.45;;
21833;SDS011;11079;51.092;3.458;2023-04-24T00:40:50;10.73;;;6.78;;
21833;SDS011;11079;51.092;3.458;2023-04-24T00:43:16;9.88;;;7.85;;
21833;SDS011;11079;51.092;3.458;2023-04-24T00:45:46;14.45;;;9.80;;
21833;SDS011;11079;51.092;3.458;2023-04-24T00:48:27;12.15;;;10.18;;
21833;SDS011;11079;51.092;3.458;2023-04-24T00:51:10;15.45;;;11.60;;
21833;SDS011;11079;51.092;3.458;2023-04-24T00:53:38;14.88;;;11.25;;
21833;SDS011;11079;51.092;3.458;2023-04-24T00:56:07;15.07;;;11.35;;
21833;SDS011;11079;51.092;3.458;2023-04-24T00:58:56;16.65;;;12.30;;
21833;SDS011;11079;51.092;3.458;2023-04-24T01:01:35;16.00;;;11.75;;
21833;SDS011;11079;51.092;3.458;2023-04-24T01:04:02;16.38;;;12.45;;
21833;SDS011;11079;51.092;3.458;2023-04-24T01:06:47;18.05;;;11.93;;
21833;SDS011;11079;51.092;3.458;2023-04-24T01:09:37;16.88;;;11.57;;
21833;SDS011;11079;51.092;3.458;2023-04-24T01:12:10;17.73;;;13.55;;
21833;SDS011;11079;51.092;3.458;2023-04-24T01:14:58;18.77;;;14.05;;
21833;SDS011;11079;51.092;3.458;2023-04-24T01:17:34;22.95;;;14.23;;
21833;SDS011;11079;51.092;3.458;2023-04-24T01:20:25;23.83;;;16.00;;
21833;SDS011;11079;51.092;3.458;2023-04-24T01:23:20;22.52;;;17.08;;
21833;SDS011;11079;51.092;3.458;2023-04-24T01:25:58;26.92;;;17.88;;
21833;SDS011;11079;51.092;3.458;2023-04-24T01:28:46;26.85;;;17.63;;
21833;SDS011;11079;51.092;3.458;2023-04-24T01:31:32;24.05;;;17.90;;
21833;SDS011;11079;51.092;3.458;2023-04-24T01:34:20;27.70;;;18.67;;
21833;SDS011;11079;51.092;3.458;2023-04-24T01:37:34;26.25;;;16.88;;
21833;SDS011;11079;51.092;3.458;2023-04-24T01:40:04;28.77;;;18.40;;
21833;SDS011;11079;51.092;3.458;2023-04-24T01:42:54;28.50;;;18.90;;
21833;SDS011;11079;51.092;3.458;2023-04-24T01:46:01;28.42;;;18.45;;
21833;SDS011;11079;51.092;3.458;2023-04-24T01:48:41;29.67;;;18.90;;
21833;SDS011;11079;51.092;3.458;2023-04-24T01:51:25;25.63;;;18.45;;
21833;SDS011;11079;51.092;3.458;2023-04-24T01:57:44;28.55;;;18.45;;
21833;SDS011;11079;51.092;3.458;2023-04-24T02:00:15;24.92;;;17.40;;
21833;SDS011;11079;51.092;3.458;2023-04-24T02:03:14;27.05;;;17.70;;
21833;SDS011;11079;51.092;3.458;2023-04-24T02:06:04;28.42;;;17.95;;
21833;SDS011;11079;51.092;3.458;2023-04-24T02:08:51;28.83;;;15.27;;
21833;SDS011;11079;51.092;3.458;2023-04-24T02:11:43;25.77;;;15.85;;
21833;SDS011;11079;51.092;3.458;2023-04-24T02:14:09;12.98;;;8.93;;
21833;SDS011;11079;51.092;3.458;2023-04-24T02:16:35;13.63;;;6.57;;
21833;SDS011;11079;51.092;3.458;2023-04-24T02:19:01;15.45;;;8.02;;
21833;SDS011;11079;51.092;3.458;2023-04-24T02:21:29;11.75;;;6.88;;
21833;SDS011;11079;51.092;3.458;2023-04-24T02:23:57;14.02;;;6.07;;
21833;SDS011;11079;51.092;3.458;2023-04-24T02:26:42;12.32;;;6.15;;
21833;SDS011;11079;51.092;3.458;2023-04-24T02:29:55;8.93;;;5.57;;
21833;SDS011;11079;51.092;3.458;2023-04-24T02:33:09;10.82;;;5.97;;
21833;SDS011;11079;51.092;3.458;2023-04-24T02:35:39;14.57;;;6.75;;
21833;SDS011;11079;51.092;3.458;2023-04-24T02:41:18;15.23;;;6.85;;
21833;SDS011;11079;51.092;3.458;2023-04-24T02:44:08;18.50;;;7.38;;
21833;SDS011;11079;51.092;3.458;2023-04-24T02:46:36;19.92;;;8.30;;
21833;SDS011;11079;51.092;3.458;2023-04-24T02:49:20;13.93;;;8.57;;
21833;SDS011;11079;51.092;3.458;2023-04-24T02:52:00;15.77;;;8.57;;
21833;SDS011;11079;51.092;3.458;2023-04-24T02:54:26;17.83;;;9.10;;
21833;SDS011;11079;51.092;3.458;2023-04-24T02:56:58;14.38;;;8.90;;
21833;SDS011;11079;51.092;3.458;2023-04-24T02:59:33;19.00;;;10.23;;
21833;SDS011;11079;51.092;3.458;2023-04-24T03:02:09;21.77;;;11.07;;
21833;SDS011;11079;51.092;3.458;2023-04-24T03:04:35;16.15;;;10.02;;
21833;SDS011;11079;51.092;3.458;2023-04-24T03:07:01;22.77;;;10.65;;
21833;SDS011;11079;51.092;3.458;2023-04-24T03:09:36;24.88;;;11.65;;
21833;SDS011;11079;51.092;3.458;2023-04-24T03:12:55;20.88;;;11.98;;
21833;SDS011;11079;51.092;3.458;2023-04-24T03:15:23;26.63;;;14.35;;
21833;SDS011;11079;51.092;3.458;2023-04-24T03:18:07;26.83;;;13.68;;
21833;SDS011;11079;51.092;3.458;2023-04-24T03:20:46;24.92;;;15.60;;
21833;SDS011;11079;51.092;3.458;2023-04-24T03:23:13;24.90;;;15.07;;
21833;SDS011;11079;51.092;3.458;2023-04-24T03:26:10;25.52;;;15.32;;
21833;SDS011;11079;51.092;3.458;2023-04-24T03:28:43;24.42;;;15.48;;
21833;SDS011;11079;51.092;3.458;2023-04-24T03:31:30;29.55;;;16.27;;
21833;SDS011;11079;51.092;3.458;2023-04-24T03:34:20;24.10;;;14.07;;
21833;SDS011;11079;51.092;3.458;2023-04-24T03:36:47;27.85;;;14.95;;
21833;SDS011;11079;51.092;3.458;2023-04-24T03:42:47;25.38;;;14.85;;
21833;SDS011;11079;51.092;3.458;2023-04-24T03:45:14;27.30;;;15.45;;
21833;SDS011;11079;51.092;3.458;2023-04-24T03:47:50;29.52;;;14.05;;
21833;SDS011;11079;51.092;3.458;2023-04-24T03:50:18;25.88;;;15.15;;
21833;SDS011;11079;51.092;3.458;2023-04-24T03:53:07;24.30;;;13.73;;
21833;SDS011;11079;51.092;3.458;2023-04-24T03:55:55;27.27;;;14.55;;
21833;SDS011;11079;51.092;3.458;2023-04-24T03:59:01;26.58;;;14.60;;
21833;SDS011;11079;51.092;3.458;2023-04-24T04:01:33;25.88;;;12.95;;
21833;SDS011;11079;51.092;3.458;2023-04-24T04:04:02;28.25;;;13.80;;
21833;SDS011;11079;51.092;3.458;2023-04-24T04:06:29;23.17;;;11.52;;
21833;SDS011;11079;51.092;3.458;2023-04-24T04:11:54;23.52;;;12.77;;
21833;SDS011;11079;51.092;3.458;2023-04-24T04:17:16;18.50;;;11.98;;
21833;SDS011;11079;51.092;3.458;2023-04-24T04:19:47;16.80;;;11.20;;
21833;SDS011;11079;51.092;3.458;2023-04-24T04:22:12;22.40;;;12.85;;
21833;SDS011;11079;51.092;3.458;2023-04-24T04:24:39;21.02;;;12.15;;
21833;SDS011;11079;51.092;3.458;2023-04-24T04:27:07;24.15;;;12.85;;
21833;SDS011;11079;51.092;3.458;2023-04-24T04:29:34;19.63;;;12.60;;
21833;SDS011;11079;51.092;3.458;2023-04-24T04:34:52;25.00;;;13.07;;
21833;SDS011;11079;51.092;3.458;2023-04-24T04:37:18;18.70;;;12.00;;
21833;SDS011;11079;51.092;3.458;2023-04-24T04:39:44;21.45;;;12.15;;
21833;SDS011;11079;51.092;3.458;2023-04-24T04:42:37;18.05;;;10.95;;
21833;SDS011;11079;51.092;3.458;2023-04-24T04:45:22;25.40;;;12.93;;
21833;SDS011;11079;51.092;3.458;2023-04-24T04:48:32;23.65;;;12.65;;
21833;SDS011;11079;51.092;3.458;2023-04-24T04:51:04;27.52;;;13.95;;
21833;SDS011;11079;51.092;3.458;2023-04-24T04:53:46;21.02;;;13.27;;
21833;SDS011;11079;51.092;3.458;2023-04-24T04:56:32;24.23;;;13.45;;
21833;SDS011;11079;51.092;3.458;2023-04-24T04:59:01;21.63;;;12.77;;
21833;SDS011;11079;51.092;3.458;2023-04-24T05:02:09;17.60;;;12.50;;
21833;SDS011;11079;51.092;3.458;2023-04-24T05:04:47;23.20;;;12.60;;
21833;SDS011;11079;51.092;3.458;2023-04-24T05:07:42;20.60;;;12.38;;
21833;SDS011;11079;51.092;3.458;2023-04-24T05:13:45;18.58;;;12.50;;
21833;SDS011;11079;51.092;3.458;2023-04-24T05:16:19;24.20;;;12.38;;
21833;SDS011;11079;51.092;3.458;2023-04-24T05:18:53;26.48;;;14.15;;
21833;SDS011;11079;51.092;3.458;2023-04-24T05:21:46;35.90;;;15.13;;
21833;SDS011;11079;51.092;3.458;2023-04-24T05:24:36;27.50;;;15.05;;
21833;SDS011;11079;51.092;3.458;2023-04-24T05:30:34;26.55;;;14.60;;
21833;SDS011;11079;51.092;3.458;2023-04-24T05:33:18;26.98;;;15.27;;
21833;SDS011;11079;51.092;3.458;2023-04-24T05:36:38;27.30;;;15.82;;
21833;SDS011;11079;51.092;3.458;2023-04-24T05:39:19;27.13;;;15.57;;
21833;SDS011;11079;51.092;3.458;2023-04-24T05:42:11;30.90;;;16.50;;
21833;SDS011;11079;51.092;3.458;2023-04-24T05:45:09;26.17;;;15.75;;
21833;SDS011;11079;51.092;3.458;2023-04-24T05:47:48;32.33;;;15.23;;
21833;SDS011;11079;51.092;3.458;2023-04-24T05:50:25;30.38;;;15.45;;
21833;SDS011;11079;51.092;3.458;2023-04-24T05:53:16;30.15;;;15.02;;
21833;SDS011;11079;51.092;3.458;2023-04-24T05:55:47;27.38;;;14.00;;
21833;SDS011;11079;51.092;3.458;2023-04-24T05:58:18;26.55;;;14.77;;
21833;SDS011;11079;51.092;3.458;2023-04-24T06:00:43;23.08;;;13.32;;
21833;SDS011;11079;51.092;3.458;2023-04-24T06:03:11;28.85;;;15.15;;
21833;SDS011;11079;51.092;3.458;2023-04-24T06:05:38;24.35;;;14.45;;
21833;SDS011;11079;51.092;3.458;2023-04-24T06:08:08;30.73;;;13.45;;
21833;SDS011;11079;51.092;3.458;2023-04-24T06:11:05;27.95;;;15.45;;
21833;SDS011;11079;51.092;3.458;2023-04-24T06:13:42;29.08;;;13.48;;
21833;SDS011;11079;51.092;3.458;2023-04-24T06:16:29;26.33;;;13.15;;
21833;SDS011;11079;51.092;3.458;2023-04-24T06:18:56;26.83;;;14.10;;
21833;SDS011;11079;51.092;3.458;2023-04-24T06:21:22;28.38;;;13.30;;
21833;SDS011;11079;51.092;3.458;2023-04-24T06:23:47;24.35;;;11.40;;
21833;SDS011;11079;51.092;3.458;2023-04-24T06:26:14;25.23;;;10.80;;
21833;SDS011;11079;51.092;3.458;2023-04-24T06:28:40;23.48;;;10.40;;
21833;SDS011;11079;51.092;3.458;2023-04-24T06:31:06;16.33;;;9.50;;
21833;SDS011;11079;51.092;3.458;2023-04-24T06:33:31;23.88;;;10.52;;
21833;SDS011;11079;51.092;3.458;2023-04-24T06:35:57;18.85;;;8.05;;
21833;SDS011;11079;51.092;3.458;2023-04-24T06:38:23;22.88;;;9.10;;
21833;SDS011;11079;51.092;3.458;2023-04-24T06:40:49;16.55;;;8.98;;
21833;SDS011;11079;51.092;3.458;2023-04-24T06:43:14;17.98;;;9.40;;
21833;SDS011;11079;51.092;3.458;2023-04-24T06:45:40;17.92;;;9.63;;
21833;SDS011;11079;51.092;3.458;2023-04-24T06:48:06;15.55;;;8.15;;
21833;SDS011;11079;51.092;3.458;2023-04-24T06:50:31;16.50;;;8.27;;
21833;SDS011;11079;51.092;3.458;2023-04-24T06:52:57;17.08;;;8.48;;
21833;SDS011;11079;51.092;3.458;2023-04-24T06:55:22;18.50;;;8.25;;
21833;SDS011;11079;51.092;3.458;2023-04-24T06:57:48;20.08;;;8.75;;
21833;SDS011;11079;51.092;3.458;2023-04-24T07:00:14;19.88;;;8.85;;
21833;SDS011;11079;51.092;3.458;2023-04-24T07:02:40;21.08;;;8.20;;
21833;SDS011;11079;51.092;3.458;2023-04-24T07:05:05;23.08;;;8.48;;
21833;SDS011;11079;51.092;3.458;2023-04-24T07:07:33;16.38;;;7.25;;
21833;SDS011;11079;51.092;3.458;2023-04-24T07:09:59;16.45;;;7.15;;
21833;SDS011;11079;51.092;3.458;2023-04-24T07:12:25;19.90;;;8.10;;
21833;SDS011;11079;51.092;3.458;2023-04-24T07:14:51;19.23;;;8.30;;
21833;SDS011;11079;51.092;3.458;2023-04-24T07:17:17;19.40;;;9.07;;
21833;SDS011;11079;51.092;3.458;2023-04-24T07:19:42;13.43;;;6.85;;
21833;SDS011;11079;51.092;3.458;2023-04-24T07:22:08;16.80;;;6.80;;
21833;SDS011;11079;51.092;3.458;2023-04-24T07:24:33;19.40;;;7.97;;
21833;SDS011;11079;51.092;3.458;2023-04-24T07:26:59;13.27;;;6.50;;
21833;SDS011;11079;51.092;3.458;2023-04-24T07:29:26;12.07;;;6.57;;
21833;SDS011;11079;51.092;3.458;2023-04-24T07:31:52;13.82;;;6.10;;
21833;SDS011;11079;51.092;3.458;2023-04-24T07:34:19;14.30;;;5.35;;
21833;SDS011;11079;51.092;3.458;2023-04-24T07:36:45;15.77;;;5.35;;
21833;SDS011;11079;51.092;3.458;2023-04-24T07:39:11;11.68;;;5.53;;
21833;SDS011;11079;51.092;3.458;2023-04-24T07:41:37;11.65;;;5.22;;
21833;SDS011;11079;51.092;3.458;2023-04-24T07:44:03;16.15;;;5.18;;
21833;SDS011;11079;51.092;3.458;2023-04-24T07:46:29;17.48;;;5.38;;
21833;SDS011;11079;51.092;3.458;2023-04-24T07:48:55;10.43;;;5.03;;
21833;SDS011;11079;51.092;3.458;2023-04-24T07:51:21;9.82;;;4.72;;
21833;SDS011;11079;51.092;3.458;2023-04-24T07:53:47;11.75;;;4.82;;
21833;SDS011;11079;51.092;3.458;2023-04-24T07:56:12;17.10;;;4.57;;
21833;SDS011;11079;51.092;3.458;2023-04-24T07:58:38;12.90;;;6.03;;
21833;SDS011;11079;51.092;3.458;2023-04-24T08:01:03;11.68;;;4.28;;
21833;SDS011;11079;51.092;3.458;2023-04-24T08:03:29;13.32;;;5.20;;
21833;SDS011;11079;51.092;3.458;2023-04-24T08:05:55;9.38;;;3.85;;
21833;SDS011;11079;51.092;3.458;2023-04-24T08:08:21;7.82;;;3.33;;
21833;SDS011;11079;51.092;3.458;2023-04-24T08:10:47;18.52;;;4.53;;
21833;SDS011;11079;51.092;3.458;2023-04-24T08:13:14;9.50;;;2.90;;
21833;SDS011;11079;51.092;3.458;2023-04-24T08:15:39;11.18;;;3.47;;
21833;SDS011;11079;51.092;3.458;2023-04-24T08:18:05;8.43;;;3.35;;
21833;SDS011;11079;51.092;3.458;2023-04-24T08:20:31;9.35;;;3.13;;
21833;SDS011;11079;51.092;3.458;2023-04-24T08:22:56;7.40;;;3.15;;
21833;SDS011;11079;51.092;3.458;2023-04-24T08:25:22;8.43;;;3.13;;
21833;SDS011;11079;51.092;3.458;2023-04-24T08:27:49;5.55;;;3.15;;
21833;SDS011;11079;51.092;3.458;2023-04-24T08:30:15;8.32;;;4.05;;
21833;SDS011;11079;51.092;3.458;2023-04-24T08:32:41;7.15;;;4.43;;
21833;SDS011;11079;51.092;3.458;2023-04-24T08:35:07;6.60;;;4.10;;
21833;SDS011;11079;51.092;3.458;2023-04-24T08:37:34;8.05;;;3.95;;
21833;SDS011;11079;51.092;3.458;2023-04-24T08:40:00;8.43;;;5.03;;
21833;SDS011;11079;51.092;3.458;2023-04-24T08:42:31;8.30;;;4.90;;
21833;SDS011;11079;51.092;3.458;2023-04-24T08:44:58;10.75;;;3.92;;
21833;SDS011;11079;51.092;3.458;2023-04-24T08:47:24;8.82;;;4.43;;
21833;SDS011;11079;51.092;3.458;2023-04-24T08:49:51;6.32;;;3.97;;
21833;SDS011;11079;51.092;3.458;2023-04-24T08:52:18;6.40;;;4.03;;
21833;SDS011;11079;51.092;3.458;2023-04-24T08:54:45;9.13;;;3.58;;
21833;SDS011;11079;51.092;3.458;2023-04-24T08:57:12;6.70;;;3.58;;
21833;SDS011;11079;51.092;3.458;2023-04-24T08:59:39;7.93;;;3.83;;
21833;SDS011;11079;51.092;3.458;2023-04-24T09:02:05;7.60;;;4.13;;
21833;SDS011;11079;51.092;3.458;2023-04-24T09:04:34;10.63;;;4.30;;
21833;SDS011;11079;51.092;3.458;2023-04-24T09:07:01;12.57;;;4.28;;
21833;SDS011;11079;51.092;3.458;2023-04-24T09:09:29;7.10;;;3.25;;
21833;SDS011;11079;51.092;3.458;2023-04-24T09:11:56;8.80;;;5.32;;
21833;SDS011;11079;51.092;3.458;2023-04-24T09:14:23;15.02;;;4.85;;
21833;SDS011;11079;51.092;3.458;2023-04-24T09:16:49;7.40;;;4.13;;
21833;SDS011;11079;51.092;3.458;2023-04-24T09:19:16;9.43;;;4.40;;
21833;SDS011;11079;51.092;3.458;2023-04-24T09:21:41;10.23;;;5.05;;
21833;SDS011;11079;51.092;3.458;2023-04-24T09:24:18;7.68;;;4.00;;
21833;SDS011;11079;51.092;3.458;2023-04-24T09:26:47;7.43;;;3.67;;
21833;SDS011;11079;51.092;3.458;2023-04-24T09:29:17;11.00;;;4.07;;
21833;SDS011;11079;51.092;3.458;2023-04-24T09:31:44;9.98;;;4.07;;
21833;SDS011;11079;51.092;3.458;2023-04-24T09:34:11;8.90;;;3.88;;
21833;SDS011;11079;51.092;3.458;2023-04-24T09:36:38;9.38;;;3.75;;
21833;SDS011;11079;51.092;3.458;2023-04-24T09:39:06;8.82;;;4.10;;
21833;SDS011;11079;51.092;3.458;2023-04-24T09:41:33;8.40;;;3.88;;
21833;SDS011;11079;51.092;3.458;2023-04-24T09:44:18;11.25;;;4.43;;
21833;SDS011;11079;51.092;3.458;2023-04-24T09:46:48;5.95;;;2.95;;
21833;SDS011;11079;51.092;3.458;2023-04-24T09:49:16;7.68;;;3.28;;
21833;SDS011;11079;51.092;3.458;2023-04-24T09:51:51;4.88;;;3.40;;
21833;SDS011;11079;51.092;3.458;2023-04-24T09:54:32;7.68;;;4.30;;
21833;SDS011;11079;51.092;3.458;2023-04-24T09:56:58;8.52;;;3.08;;
21833;SDS011;11079;51.092;3.458;2023-04-24T09:59:25;10.65;;;3.65;;
21833;SDS011;11079;51.092;3.458;2023-04-24T10:01:51;8.52;;;3.47;;
21833;SDS011;11079;51.092;3.458;2023-04-24T10:04:21;7.28;;;3.40;;
21833;SDS011;11079;51.092;3.458;2023-04-24T10:06:49;7.32;;;4.43;;
21833;SDS011;11079;51.092;3.458;2023-04-24T10:09:20;5.95;;;3.83;;
21833;SDS011;11079;51.092;3.458;2023-04-24T10:11:48;7.32;;;3.40;;
21833;SDS011;11079;51.092;3.458;2023-04-24T10:14:16;7.13;;;3.03;;
21833;SDS011;11079;51.092;3.458;2023-04-24T10:16:43;8.43;;;3.60;;
21833;SDS011;11079;51.092;3.458;2023-04-24T10:19:15;7.70;;;3.50;;
21833;SDS011;11079;51.092;3.458;2023-04-24T10:22:00;7.40;;;3.10;;
21833;SDS011;11079;51.092;3.458;2023-04-24T10:24:27;4.60;;;3.05;;
21833;SDS011;11079;51.092;3.458;2023-04-24T10:26:54;8.00;;;3.85;;
21833;SDS011;11079;51.092;3.458;2023-04-24T10:29:22;6.72;;;2.85;;
21833;SDS011;11079;51.092;3.458;2023-04-24T10:31:52;7.38;;;2.88;;
21833;SDS011;11079;51.092;3.458;2023-04-24T10:34:17;10.20;;;3.33;;
21833;SDS011;11079;51.092;3.458;2023-04-24T10:36:48;7.40;;;2.70;;
21833;SDS011;11079;51.092;3.458;2023-04-24T10:39:20;5.78;;;2.83;;
21833;SDS011;11079;51.092;3.458;2023-04-24T10:41:48;12.15;;;3.05;;
21833;SDS011;11079;51.092;3.458;2023-04-24T10:44:15;6.53;;;3.10;;
21833;SDS011;11079;51.092;3.458;2023-04-24T10:47:22;6.50;;;3.10;;
21833;SDS011;11079;51.092;3.458;2023-04-24T10:49:50;4.70;;;2.55;;
21833;SDS011;11079;51.092;3.458;2023-04-24T10:52:17;7.32;;;3.25;;
21833;SDS011;11079;51.092;3.458;2023-04-24T10:54:44;5.35;;;2.50;;
21833;SDS011;11079;51.092;3.458;2023-04-24T11:00:19;3.80;;;1.70;;
21833;SDS011;11079;51.092;3.458;2023-04-24T11:02:58;3.50;;;2.08;;
21833;SDS011;11079;51.092;3.458;2023-04-24T11:05:48;5.60;;;2.88;;
21833;SDS011;11079;51.092;3.458;2023-04-24T11:24:36;8.02;;;2.60;;
21833;SDS011;11079;51.092;3.458;2023-04-24T11:27:15;6.22;;;2.97;;
21833;SDS011;11079;51.092;3.458;2023-04-24T11:29:46;6.72;;;2.60;;
21833;SDS011;11079;51.092;3.458;2023-04-24T11:34:53;4.00;;;2.35;;
21833;SDS011;11079;51.092;3.458;2023-04-24T11:37:21;6.60;;;2.28;;
21833;SDS011;11079;51.092;3.458;2023-04-24T11:39:53;6.82;;;2.70;;
21833;SDS011;11079;51.092;3.458;2023-04-24T11:42:20;5.18;;;2.17;;
21833;SDS011;11079;51.092;3.458;2023-04-24T11:44:47;4.93;;;2.50;;
21833;SDS011;11079;51.092;3.458;2023-04-24T11:47:15;5.30;;;2.13;;
21833;SDS011;11079;51.092;3.458;2023-04-24T11:49:41;3.08;;;1.83;;
21833;SDS011;11079;51.092;3.458;2023-04-24T11:52:06;5.18;;;2.15;;
21833;SDS011;11079;51.092;3.458;2023-04-24T11:54:32;7.28;;;1.77;;
21833;SDS011;11079;51.092;3.458;2023-04-24T11:57:03;6.80;;;3.33;;
21833;SDS011;11079;51.092;3.458;2023-04-24T11:59:35;3.50;;;1.63;;
21833;SDS011;11079;51.092;3.458;2023-04-24T12:02:01;4.90;;;1.85;;
21833;SDS011;11079;51.092;3.458;2023-04-24T12:04:37;4.07;;;1.80;;
21833;SDS011;11079;51.092;3.458;2023-04-24T12:07:04;6.28;;;1.75;;
21833;SDS011;11079;51.092;3.458;2023-04-24T12:09:40;5.30;;;2.20;;
21833;SDS011;11079;51.092;3.458;2023-04-24T12:12:07;3.95;;;1.67;;
21833;SDS011;11079;51.092;3.458;2023-04-24T12:14:41;4.32;;;2.60;;
21833;SDS011;11079;51.092;3.458;2023-04-24T12:17:08;4.20;;;1.42;;
21833;SDS011;11079;51.092;3.458;2023-04-24T12:19:33;4.20;;;1.40;;
21833;SDS011;11079;51.092;3.458;2023-04-24T12:22:02;5.10;;;1.95;;
21833;SDS011;11079;51.092;3.458;2023-04-24T12:24:30;4.22;;;2.00;;
21833;SDS011;11079;51.092;3.458;2023-04-24T12:26:56;4.05;;;1.60;;
21833;SDS011;11079;51.092;3.458;2023-04-24T12:29:23;5.43;;;1.40;;
21833;SDS011;11079;51.092;3.458;2023-04-24T12:31:49;6.03;;;1.77;;
21833;SDS011;11079;51.092;3.458;2023-04-24T12:34:19;5.07;;;2.20;;
21833;SDS011;11079;51.092;3.458;2023-04-24T12:36:47;5.85;;;1.38;;
21833;SDS011;11079;51.092;3.458;2023-04-24T12:39:19;6.82;;;1.88;;
21833;SDS011;11079;51.092;3.458;2023-04-24T12:41:57;1.08;;;0.88;;
21833;SDS011;11079;51.092;3.458;2023-04-24T12:44:31;3.25;;;1.15;;
21833;SDS011;11079;51.092;3.458;2023-04-24T12:46:59;3.25;;;1.65;;
21833;SDS011;11079;51.092;3.458;2023-04-24T12:49:26;4.57;;;1.33;;
21833;SDS011;11079;51.092;3.458;2023-04-24T12:51:52;3.53;;;1.10;;
21833;SDS011;11079;51.092;3.458;2023-04-24T12:54:17;3.63;;;1.45;;
21833;SDS011;11079;51.092;3.458;2023-04-24T12:56:43;2.33;;;1.08;;
21833;SDS011;11079;51.092;3.458;2023-04-24T12:59:09;3.55;;;0.93;;
21833;SDS011;11079;51.092;3.458;2023-04-24T13:01:34;4.80;;;1.73;;
21833;SDS011;11079;51.092;3.458;2023-04-24T13:04:00;2.92;;;1.25;;
21833;SDS011;11079;51.092;3.458;2023-04-24T13:06:26;3.42;;;1.30;;
21833;SDS011;11079;51.092;3.458;2023-04-24T13:08:53;2.25;;;1.13;;
21833;SDS011;11079;51.092;3.458;2023-04-24T13:11:21;4.63;;;1.25;;
21833;SDS011;11079;51.092;3.458;2023-04-24T13:13:47;3.33;;;1.10;;
21833;SDS011;11079;51.092;3.458;2023-04-24T13:16:12;1.80;;;0.88;;
21833;SDS011;11079;51.092;3.458;2023-04-24T13:18:38;3.60;;;2.35;;
21833;SDS011;11079;51.092;3.458;2023-04-24T13:21:04;2.17;;;0.80;;
21833;SDS011;11079;51.092;3.458;2023-04-24T13:23:30;3.08;;;0.80;;
21833;SDS011;11079;51.092;3.458;2023-04-24T13:25:56;3.92;;;1.05;;
21833;SDS011;11079;51.092;3.458;2023-04-24T13:28:22;3.45;;;1.17;;
21833;SDS011;11079;51.092;3.458;2023-04-24T13:30:49;4.95;;;1.10;;
21833;SDS011;11079;51.092;3.458;2023-04-24T13:33:15;2.83;;;0.80;;
21833;SDS011;11079;51.092;3.458;2023-04-24T13:35:41;3.50;;;0.70;;
21833;SDS011;11079;51.092;3.458;2023-04-24T13:38:06;3.05;;;1.02;;
21833;SDS011;11079;51.092;3.458;2023-04-24T13:40:32;3.60;;;0.98;;
21833;SDS011;11079;51.092;3.458;2023-04-24T13:42:58;5.00;;;1.10;;
21833;SDS011;11079;51.092;3.458;2023-04-24T13:45:23;4.53;;;1.15;;
21833;SDS011;11079;51.092;3.458;2023-04-24T13:47:49;3.40;;;0.95;;
21833;SDS011;11079;51.092;3.458;2023-04-24T13:50:15;2.00;;;0.60;;
21833;SDS011;11079;51.092;3.458;2023-04-24T13:52:41;3.72;;;1.10;;
21833;SDS011;11079;51.092;3.458;2023-04-24T13:55:06;8.43;;;1.10;;
21833;SDS011;11079;51.092;3.458;2023-04-24T13:57:32;3.60;;;1.20;;
21833;SDS011;11079;51.092;3.458;2023-04-24T13:59:58;2.90;;;0.75;;
21833;SDS011;11079;51.092;3.458;2023-04-24T14:02:28;5.97;;;0.77;;
21833;SDS011;11079;51.092;3.458;2023-04-24T14:04:54;1.65;;;0.60;;
21833;SDS011;11079;51.092;3.458;2023-04-24T14:07:20;1.33;;;0.65;;
21833;SDS011;11079;51.092;3.458;2023-04-24T14:09:46;2.42;;;0.70;;
21833;SDS011;11079;51.092;3.458;2023-04-24T14:12:12;4.28;;;0.95;;
21833;SDS011;11079;51.092;3.458;2023-04-24T14:14:39;2.92;;;1.65;;
21833;SDS011;11079;51.092;3.458;2023-04-24T14:17:04;4.25;;;1.00;;
21833;SDS011;11079;51.092;3.458;2023-04-24T14:19:30;2.13;;;1.00;;
21833;SDS011;11079;51.092;3.458;2023-04-24T14:21:56;2.53;;;0.90;;
21833;SDS011;11079;51.092;3.458;2023-04-24T14:24:23;1.33;;;0.80;;
21833;SDS011;11079;51.092;3.458;2023-04-24T14:26:48;1.85;;;0.82;;
21833;SDS011;11079;51.092;3.458;2023-04-24T14:29:14;3.97;;;1.05;;
21833;SDS011;11079;51.092;3.458;2023-04-24T14:31:41;4.15;;;1.67;;
21833;SDS011;11079;51.092;3.458;2023-04-24T14:34:07;4.47;;;1.38;;
21833;SDS011;11079;51.092;3.458;2023-04-24T14:36:34;4.22;;;1.55;;
21833;SDS011;11079;51.092;3.458;2023-04-24T14:39:00;3.47;;;1.20;;
21833;SDS011;11079;51.092;3.458;2023-04-24T14:41:28;4.45;;;1.33;;
21833;SDS011;11079;51.092;3.458;2023-04-24T14:43:54;2.00;;;1.30;;
21833;SDS011;11079;51.092;3.458;2023-04-24T14:46:19;4.13;;;1.70;;
21833;SDS011;11079;51.092;3.458;2023-04-24T14:48:45;3.25;;;1.40;;
21833;SDS011;11079;51.092;3.458;2023-04-24T14:51:11;3.13;;;1.25;;
21833;SDS011;11079;51.092;3.458;2023-04-24T14:53:37;3.97;;;1.70;;
21833;SDS011;11079;51.092;3.458;2023-04-24T14:56:02;3.28;;;1.52;;
21833;SDS011;11079;51.092;3.458;2023-04-24T14:58:28;4.03;;;1.75;;
21833;SDS011;11079;51.092;3.458;2023-04-24T15:00:54;3.17;;;1.90;;
21833;SDS011;11079;51.092;3.458;2023-04-24T15:03:19;4.78;;;1.70;;
21833;SDS011;11079;51.092;3.458;2023-04-24T15:05:46;3.47;;;1.70;;
21833;SDS011;11079;51.092;3.458;2023-04-24T15:08:12;3.53;;;1.50;;
21833;SDS011;11079;51.092;3.458;2023-04-24T15:10:38;3.72;;;1.48;;
21833;SDS011;11079;51.092;3.458;2023-04-24T15:13:08;3.53;;;1.80;;
21833;SDS011;11079;51.092;3.458;2023-04-24T15:15:36;3.28;;;1.80;;
21833;SDS011;11079;51.092;3.458;2023-04-24T15:18:02;3.65;;;1.83;;
21833;SDS011;11079;51.092;3.458;2023-04-24T15:20:29;5.03;;;2.00;;
21833;SDS011;11079;51.092;3.458;2023-04-24T15:22:54;4.20;;;1.70;;
21833;SDS011;11079;51.092;3.458;2023-04-24T15:25:20;4.50;;;1.70;;
21833;SDS011;11079;51.092;3.458;2023-04-24T15:27:46;4.25;;;2.35;;
21833;SDS011;11079;51.092;3.458;2023-04-24T15:30:12;4.25;;;1.80;;
21833;SDS011;11079;51.092;3.458;2023-04-24T15:32:39;7.18;;;2.03;;
21833;SDS011;11079;51.092;3.458;2023-04-24T15:35:05;3.95;;;1.33;;
21833;SDS011;11079;51.092;3.458;2023-04-24T15:37:31;5.53;;;1.92;;
21833;SDS011;11079;51.092;3.458;2023-04-24T15:39:57;3.25;;;1.90;;
21833;SDS011;11079;51.092;3.458;2023-04-24T15:42:24;5.65;;;2.33;;
21833;SDS011;11079;51.092;3.458;2023-04-24T15:44:50;6.38;;;1.80;;
21833;SDS011;11079;51.092;3.458;2023-04-24T15:47:16;4.63;;;2.08;;
21833;SDS011;11079;51.092;3.458;2023-04-24T15:49:42;4.15;;;1.85;;
21833;SDS011;11079;51.092;3.458;2023-04-24T15:52:07;6.25;;;2.40;;
21833;SDS011;11079;51.092;3.458;2023-04-24T15:54:34;3.15;;;2.38;;